sensor_id;sensor_type;location;lat;lon;timestamp;P1;durP1;ratioP1;P2;durP2;ratioP2
34491;SDS011;20737;49.908;8.126;2022-09-13T00:00:40;5.00;;;2.95;;
34491;SDS011;20737;49.908;8.126;2022-09-13T00:03:07;3.20;;;2.78;;
34491;SDS011;20737;49.908;8.126;2022-09-13T00:05:35;3.75;;;3.00;;
34491;SDS011;20737;49.908;8.126;2022-09-13T00:08:02;3.55;;;3.08;;
34491;SDS011;20737;49.908;8.126;2022-09-13T00:10:29;3.45;;;2.70;;
34491;SDS011;20737;49.908;8.126;2022-09-13T00:12:58;4.80;;;3.28;;
34491;SDS011;20737;49.908;8.126;2022-09-13T00:15:27;3.92;;;2.85;;
34491;SDS011;20737;49.908;8.126;2022-09-13T00:17:54;4.45;;;3.08;;
34491;SDS011;20737;49.908;8.126;2022-09-13T00:20:21;4.00;;;3.25;;
34491;SDS011;20737;49.908;8.126;2022-09-13T00:22:48;4.57;;;3.17;;
34491;SDS011;20737;49.908;8.126;2022-09-13T00:25:15;4.55;;;2.75;;
34491;SDS011;20737;49.908;8.126;2022-09-13T00:27:41;4.65;;;3.10;;
34491;SDS011;20737;49.908;8.126;2022-09-13T00:30:09;4.90;;;3.00;;
34491;SDS011;20737;49.908;8.126;2022-09-13T00:32:38;3.70;;;2.90;;
34491;SDS011;20737;49.908;8.126;2022-09-13T00:35:05;4.60;;;3.15;;
34491;SDS011;20737;49.908;8.126;2022-09-13T00:37:33;3.92;;;2.83;;
34491;SDS011;20737;49.908;8.126;2022-09-13T00:40:00;3.80;;;3.10;;
34491;SDS011;20737;49.908;8.126;2022-09-13T00:42:27;3.38;;;2.97;;
34491;SDS011;20737;49.908;8.126;2022-09-13T00:44:57;4.95;;;3.05;;
34491;SDS011;20737;49.908;8.126;2022-09-13T00:47:26;4.22;;;2.78;;
34491;SDS011;20737;49.908;8.126;2022-09-13T00:50:02;4.25;;;2.92;;
34491;SDS011;20737;49.908;8.126;2022-09-13T00:52:33;4.68;;;3.00;;
34491;SDS011;20737;49.908;8.126;2022-09-13T00:55:05;4.72;;;2.88;;
34491;SDS011;20737;49.908;8.126;2022-09-13T00:57:36;3.70;;;3.13;;
34491;SDS011;20737;49.908;8.126;2022-09-13T01:00:07;7.43;;;3.42;;
34491;SDS011;20737;49.908;8.126;2022-09-13T01:02:37;5.03;;;3.20;;
34491;SDS011;20737;49.908;8.126;2022-09-13T01:05:07;4.03;;;3.05;;
34491;SDS011;20737;49.908;8.126;2022-09-13T01:07:36;3.97;;;3.35;;
34491;SDS011;20737;49.908;8.126;2022-09-13T01:10:03;5.28;;;3.30;;
34491;SDS011;20737;49.908;8.126;2022-09-13T01:12:33;4.45;;;3.22;;
34491;SDS011;20737;49.908;8.126;2022-09-13T01:15:05;5.22;;;3.72;;
34491;SDS011;20737;49.908;8.126;2022-09-13T01:17:32;5.13;;;4.07;;
34491;SDS011;20737;49.908;8.126;2022-09-13T01:20:00;4.07;;;3.20;;
34491;SDS011;20737;49.908;8.126;2022-09-13T01:25:43;6.80;;;3.03;;
34491;SDS011;20737;49.908;8.126;2022-09-13T01:28:36;4.47;;;3.20;;
34491;SDS011;20737;49.908;8.126;2022-09-13T01:31:21;4.43;;;3.40;;
34491;SDS011;20737;49.908;8.126;2022-09-13T01:34:00;6.57;;;3.42;;
34491;SDS011;20737;49.908;8.126;2022-09-13T01:36:42;5.25;;;3.30;;
34491;SDS011;20737;49.908;8.126;2022-09-13T01:39:21;4.65;;;2.88;;
34491;SDS011;20737;49.908;8.126;2022-09-13T01:42:04;5.68;;;3.55;;
34491;SDS011;20737;49.908;8.126;2022-09-13T01:44:45;6.60;;;3.28;;
34491;SDS011;20737;49.908;8.126;2022-09-13T01:47:28;4.80;;;3.00;;
34491;SDS011;20737;49.908;8.126;2022-09-13T01:50:02;4.70;;;3.50;;
34491;SDS011;20737;49.908;8.126;2022-09-13T01:52:40;5.53;;;3.55;;
34491;SDS011;20737;49.908;8.126;2022-09-13T01:55:12;6.47;;;3.58;;
34491;SDS011;20737;49.908;8.126;2022-09-13T01:57:55;5.15;;;3.67;;
34491;SDS011;20737;49.908;8.126;2022-09-13T02:00:28;4.97;;;3.40;;
34491;SDS011;20737;49.908;8.126;2022-09-13T02:03:04;4.88;;;3.20;;
34491;SDS011;20737;49.908;8.126;2022-09-13T02:05:36;3.47;;;3.17;;
34491;SDS011;20737;49.908;8.126;2022-09-13T02:08:08;5.28;;;3.35;;
34491;SDS011;20737;49.908;8.126;2022-09-13T02:10:39;5.38;;;3.92;;
34491;SDS011;20737;49.908;8.126;2022-09-13T02:13:10;6.95;;;3.65;;
34491;SDS011;20737;49.908;8.126;2022-09-13T02:15:42;5.13;;;3.50;;
34491;SDS011;20737;49.908;8.126;2022-09-13T02:18:14;4.72;;;3.58;;
34491;SDS011;20737;49.908;8.126;2022-09-13T02:20:46;4.85;;;3.97;;
34491;SDS011;20737;49.908;8.126;2022-09-13T02:23:16;7.55;;;4.05;;
34491;SDS011;20737;49.908;8.126;2022-09-13T02:25:48;6.80;;;4.03;;
34491;SDS011;20737;49.908;8.126;2022-09-13T02:28:19;6.22;;;3.47;;
34491;SDS011;20737;49.908;8.126;2022-09-13T02:30:52;5.38;;;3.95;;
34491;SDS011;20737;49.908;8.126;2022-09-13T02:33:25;5.65;;;3.70;;
34491;SDS011;20737;49.908;8.126;2022-09-13T02:35:57;7.22;;;4.10;;
34491;SDS011;20737;49.908;8.126;2022-09-13T02:38:28;5.93;;;3.97;;
34491;SDS011;20737;49.908;8.126;2022-09-13T02:40:59;6.90;;;3.92;;
34491;SDS011;20737;49.908;8.126;2022-09-13T02:43:32;6.15;;;3.92;;
34491;SDS011;20737;49.908;8.126;2022-09-13T02:46:07;4.95;;;3.80;;
34491;SDS011;20737;49.908;8.126;2022-09-13T02:48:46;4.80;;;4.05;;
34491;SDS011;20737;49.908;8.126;2022-09-13T02:51:23;6.00;;;3.92;;
34491;SDS011;20737;49.908;8.126;2022-09-13T02:53:58;6.03;;;3.80;;
34491;SDS011;20737;49.908;8.126;2022-09-13T02:56:33;5.70;;;4.25;;
34491;SDS011;20737;49.908;8.126;2022-09-13T02:59:09;6.53;;;4.10;;
34491;SDS011;20737;49.908;8.126;2022-09-13T03:01:42;5.15;;;3.92;;
34491;SDS011;20737;49.908;8.126;2022-09-13T03:04:14;6.50;;;4.65;;
34491;SDS011;20737;49.908;8.126;2022-09-13T03:06:41;7.68;;;4.65;;
34491;SDS011;20737;49.908;8.126;2022-09-13T03:09:08;6.93;;;4.85;;
34491;SDS011;20737;49.908;8.126;2022-09-13T03:11:39;7.32;;;4.55;;
34491;SDS011;20737;49.908;8.126;2022-09-13T03:14:21;6.97;;;5.00;;
34491;SDS011;20737;49.908;8.126;2022-09-13T03:17:04;9.90;;;4.70;;
34491;SDS011;20737;49.908;8.126;2022-09-13T03:19:44;6.47;;;4.53;;
34491;SDS011;20737;49.908;8.126;2022-09-13T03:22:28;6.28;;;4.00;;
34491;SDS011;20737;49.908;8.126;2022-09-13T03:25:20;7.13;;;4.57;;
34491;SDS011;20737;49.908;8.126;2022-09-13T03:27:59;7.45;;;4.38;;
34491;SDS011;20737;49.908;8.126;2022-09-13T03:30:36;7.13;;;4.50;;
34491;SDS011;20737;49.908;8.126;2022-09-13T03:33:08;7.82;;;4.30;;
34491;SDS011;20737;49.908;8.126;2022-09-13T03:35:47;7.57;;;4.70;;
34491;SDS011;20737;49.908;8.126;2022-09-13T03:38:20;8.20;;;4.88;;
34491;SDS011;20737;49.908;8.126;2022-09-13T03:40:55;8.13;;;4.72;;
34491;SDS011;20737;49.908;8.126;2022-09-13T03:43:30;7.25;;;4.28;;
34491;SDS011;20737;49.908;8.126;2022-09-13T03:46:01;8.82;;;4.50;;
34491;SDS011;20737;49.908;8.126;2022-09-13T03:48:31;7.80;;;4.35;;
34491;SDS011;20737;49.908;8.126;2022-09-13T03:51:03;5.65;;;4.03;;
34491;SDS011;20737;49.908;8.126;2022-09-13T03:53:30;6.53;;;4.53;;
34491;SDS011;20737;49.908;8.126;2022-09-13T03:56:00;4.88;;;3.83;;
34491;SDS011;20737;49.908;8.126;2022-09-13T03:58:38;5.18;;;4.25;;
34491;SDS011;20737;49.908;8.126;2022-09-13T04:01:04;6.85;;;4.53;;
34491;SDS011;20737;49.908;8.126;2022-09-13T04:03:31;7.88;;;4.15;;
34491;SDS011;20737;49.908;8.126;2022-09-13T04:05:58;7.90;;;4.25;;
34491;SDS011;20737;49.908;8.126;2022-09-13T04:08:26;5.50;;;4.32;;
34491;SDS011;20737;49.908;8.126;2022-09-13T04:10:53;9.68;;;5.22;;
34491;SDS011;20737;49.908;8.126;2022-09-13T04:13:19;9.15;;;4.63;;
34491;SDS011;20737;49.908;8.126;2022-09-13T04:15:47;9.27;;;4.75;;
34491;SDS011;20737;49.908;8.126;2022-09-13T04:18:14;7.13;;;4.80;;
34491;SDS011;20737;49.908;8.126;2022-09-13T04:20:41;6.80;;;4.68;;
34491;SDS011;20737;49.908;8.126;2022-09-13T04:23:07;8.77;;;5.10;;
34491;SDS011;20737;49.908;8.126;2022-09-13T04:25:38;6.38;;;4.80;;
34491;SDS011;20737;49.908;8.126;2022-09-13T04:28:05;7.22;;;5.28;;
34491;SDS011;20737;49.908;8.126;2022-09-13T04:30:32;9.15;;;5.28;;
34491;SDS011;20737;49.908;8.126;2022-09-13T04:32:58;9.95;;;4.60;;
34491;SDS011;20737;49.908;8.126;2022-09-13T04:35:25;10.40;;;5.15;;
34491;SDS011;20737;49.908;8.126;2022-09-13T04:37:53;11.23;;;5.05;;
34491;SDS011;20737;49.908;8.126;2022-09-13T04:40:21;5.18;;;4.20;;
34491;SDS011;20737;49.908;8.126;2022-09-13T04:42:50;7.32;;;4.82;;
34491;SDS011;20737;49.908;8.126;2022-09-13T04:45:18;7.43;;;4.80;;
34491;SDS011;20737;49.908;8.126;2022-09-13T04:47:49;7.38;;;4.60;;
34491;SDS011;20737;49.908;8.126;2022-09-13T04:50:16;6.03;;;4.38;;
34491;SDS011;20737;49.908;8.126;2022-09-13T04:52:44;6.53;;;4.82;;
34491;SDS011;20737;49.908;8.126;2022-09-13T04:55:11;6.45;;;4.60;;
34491;SDS011;20737;49.908;8.126;2022-09-13T04:57:38;5.50;;;4.38;;
34491;SDS011;20737;49.908;8.126;2022-09-13T05:00:07;5.75;;;4.47;;
34491;SDS011;20737;49.908;8.126;2022-09-13T05:02:35;8.50;;;4.70;;
34491;SDS011;20737;49.908;8.126;2022-09-13T05:05:01;7.15;;;4.47;;
34491;SDS011;20737;49.908;8.126;2022-09-13T05:07:29;8.02;;;4.47;;
34491;SDS011;20737;49.908;8.126;2022-09-13T05:09:55;5.43;;;4.13;;
34491;SDS011;20737;49.908;8.126;2022-09-13T05:12:22;7.10;;;4.85;;
34491;SDS011;20737;49.908;8.126;2022-09-13T05:14:49;5.93;;;4.22;;
34491;SDS011;20737;49.908;8.126;2022-09-13T05:17:17;7.13;;;4.10;;
34491;SDS011;20737;49.908;8.126;2022-09-13T05:19:44;8.35;;;4.20;;
34491;SDS011;20737;49.908;8.126;2022-09-13T05:22:11;6.75;;;4.47;;
34491;SDS011;20737;49.908;8.126;2022-09-13T05:24:38;7.07;;;4.88;;
34491;SDS011;20737;49.908;8.126;2022-09-13T05:27:05;6.90;;;4.55;;
34491;SDS011;20737;49.908;8.126;2022-09-13T05:29:32;6.40;;;3.95;;
34491;SDS011;20737;49.908;8.126;2022-09-13T05:31:59;8.25;;;4.72;;
34491;SDS011;20737;49.908;8.126;2022-09-13T05:34:27;5.45;;;4.00;;
34491;SDS011;20737;49.908;8.126;2022-09-13T05:36:54;6.63;;;4.55;;
34491;SDS011;20737;49.908;8.126;2022-09-13T05:39:21;9.68;;;4.95;;
34491;SDS011;20737;49.908;8.126;2022-09-13T05:41:48;6.68;;;4.28;;
34491;SDS011;20737;49.908;8.126;2022-09-13T05:44:14;6.20;;;4.28;;
34491;SDS011;20737;49.908;8.126;2022-09-13T05:46:41;8.68;;;4.93;;
34491;SDS011;20737;49.908;8.126;2022-09-13T05:49:11;7.53;;;5.30;;
34491;SDS011;20737;49.908;8.126;2022-09-13T05:51:40;6.60;;;5.15;;
34491;SDS011;20737;49.908;8.126;2022-09-13T05:54:06;5.70;;;4.70;;
34491;SDS011;20737;49.908;8.126;2022-09-13T05:56:36;7.32;;;4.45;;
34491;SDS011;20737;49.908;8.126;2022-09-13T05:59:03;5.53;;;4.57;;
34491;SDS011;20737;49.908;8.126;2022-09-13T06:01:30;7.10;;;4.55;;
34491;SDS011;20737;49.908;8.126;2022-09-13T06:03:57;5.63;;;4.82;;
34491;SDS011;20737;49.908;8.126;2022-09-13T06:06:24;7.22;;;5.22;;
34491;SDS011;20737;49.908;8.126;2022-09-13T06:08:53;6.70;;;4.85;;
34491;SDS011;20737;49.908;8.126;2022-09-13T06:11:23;7.07;;;4.70;;
34491;SDS011;20737;49.908;8.126;2022-09-13T06:13:50;7.85;;;5.07;;
34491;SDS011;20737;49.908;8.126;2022-09-13T06:16:18;8.23;;;5.05;;
34491;SDS011;20737;49.908;8.126;2022-09-13T06:18:45;9.07;;;4.80;;
34491;SDS011;20737;49.908;8.126;2022-09-13T06:21:13;9.80;;;5.70;;
34491;SDS011;20737;49.908;8.126;2022-09-13T06:23:42;7.90;;;5.10;;
34491;SDS011;20737;49.908;8.126;2022-09-13T06:26:11;10.23;;;5.40;;
34491;SDS011;20737;49.908;8.126;2022-09-13T06:28:40;8.68;;;5.63;;
34491;SDS011;20737;49.908;8.126;2022-09-13T06:31:08;9.82;;;5.35;;
34491;SDS011;20737;49.908;8.126;2022-09-13T06:33:37;9.13;;;5.40;;
34491;SDS011;20737;49.908;8.126;2022-09-13T06:36:05;8.05;;;5.20;;
34491;SDS011;20737;49.908;8.126;2022-09-13T06:38:33;8.23;;;4.80;;
34491;SDS011;20737;49.908;8.126;2022-09-13T06:41:01;13.20;;;5.10;;
34491;SDS011;20737;49.908;8.126;2022-09-13T06:43:30;7.78;;;5.38;;
34491;SDS011;20737;49.908;8.126;2022-09-13T06:46:00;8.68;;;5.40;;
34491;SDS011;20737;49.908;8.126;2022-09-13T06:48:29;6.80;;;5.15;;
34491;SDS011;20737;49.908;8.126;2022-09-13T06:50:58;11.30;;;5.00;;
34491;SDS011;20737;49.908;8.126;2022-09-13T06:53:26;8.63;;;5.53;;
34491;SDS011;20737;49.908;8.126;2022-09-13T06:56:00;7.00;;;5.55;;
34491;SDS011;20737;49.908;8.126;2022-09-13T06:58:30;7.40;;;5.63;;
34491;SDS011;20737;49.908;8.126;2022-09-13T07:01:07;7.25;;;5.20;;
34491;SDS011;20737;49.908;8.126;2022-09-13T07:03:39;8.43;;;5.97;;
34491;SDS011;20737;49.908;8.126;2022-09-13T07:06:07;7.32;;;5.97;;
34491;SDS011;20737;49.908;8.126;2022-09-13T07:08:36;8.18;;;5.90;;
34491;SDS011;20737;49.908;8.126;2022-09-13T07:11:03;9.95;;;6.15;;
34491;SDS011;20737;49.908;8.126;2022-09-13T07:13:31;9.43;;;5.82;;
34491;SDS011;20737;49.908;8.126;2022-09-13T07:16:00;11.07;;;6.88;;
34491;SDS011;20737;49.908;8.126;2022-09-13T07:18:28;11.48;;;6.72;;
34491;SDS011;20737;49.908;8.126;2022-09-13T07:20:57;9.55;;;6.20;;
34491;SDS011;20737;49.908;8.126;2022-09-13T07:23:25;11.15;;;5.75;;
34491;SDS011;20737;49.908;8.126;2022-09-13T07:25:52;9.88;;;5.65;;
34491;SDS011;20737;49.908;8.126;2022-09-13T07:28:20;10.80;;;6.40;;
34491;SDS011;20737;49.908;8.126;2022-09-13T07:30:48;9.80;;;5.80;;
34491;SDS011;20737;49.908;8.126;2022-09-13T07:33:14;13.82;;;6.38;;
34491;SDS011;20737;49.908;8.126;2022-09-13T07:35:42;8.55;;;6.13;;
34491;SDS011;20737;49.908;8.126;2022-09-13T07:38:11;11.25;;;6.53;;
34491;SDS011;20737;49.908;8.126;2022-09-13T07:40:38;10.38;;;6.78;;
34491;SDS011;20737;49.908;8.126;2022-09-13T07:43:05;9.55;;;6.65;;
34491;SDS011;20737;49.908;8.126;2022-09-13T07:45:31;11.15;;;6.20;;
34491;SDS011;20737;49.908;8.126;2022-09-13T07:47:59;32.65;;;6.88;;
34491;SDS011;20737;49.908;8.126;2022-09-13T07:50:26;10.82;;;6.28;;
34491;SDS011;20737;49.908;8.126;2022-09-13T07:52:53;11.40;;;6.60;;
34491;SDS011;20737;49.908;8.126;2022-09-13T07:55:20;10.38;;;7.05;;
34491;SDS011;20737;49.908;8.126;2022-09-13T07:57:46;10.57;;;6.70;;
34491;SDS011;20737;49.908;8.126;2022-09-13T08:00:13;11.57;;;7.45;;
34491;SDS011;20737;49.908;8.126;2022-09-13T08:02:40;11.00;;;6.45;;
34491;SDS011;20737;49.908;8.126;2022-09-13T08:05:08;10.38;;;6.95;;
34491;SDS011;20737;49.908;8.126;2022-09-13T08:07:35;9.43;;;6.60;;
34491;SDS011;20737;49.908;8.126;2022-09-13T08:10:02;10.68;;;6.18;;
34491;SDS011;20737;49.908;8.126;2022-09-13T08:12:29;9.70;;;6.38;;
34491;SDS011;20737;49.908;8.126;2022-09-13T08:14:56;12.40;;;6.63;;
34491;SDS011;20737;49.908;8.126;2022-09-13T08:17:22;11.25;;;6.68;;
34491;SDS011;20737;49.908;8.126;2022-09-13T08:19:49;9.60;;;6.13;;
34491;SDS011;20737;49.908;8.126;2022-09-13T08:22:17;10.07;;;5.95;;
34491;SDS011;20737;49.908;8.126;2022-09-13T08:24:44;8.50;;;6.38;;
34491;SDS011;20737;49.908;8.126;2022-09-13T08:27:11;8.52;;;6.13;;
34491;SDS011;20737;49.908;8.126;2022-09-13T08:29:37;12.35;;;7.00;;
34491;SDS011;20737;49.908;8.126;2022-09-13T08:32:04;10.35;;;7.00;;
34491;SDS011;20737;49.908;8.126;2022-09-13T08:34:31;10.50;;;7.18;;
34491;SDS011;20737;49.908;8.126;2022-09-13T08:36:58;13.75;;;6.53;;
34491;SDS011;20737;49.908;8.126;2022-09-13T08:39:26;17.55;;;7.93;;
34491;SDS011;20737;49.908;8.126;2022-09-13T08:42:00;9.15;;;6.40;;
34491;SDS011;20737;49.908;8.126;2022-09-13T08:44:39;12.70;;;7.03;;
34491;SDS011;20737;49.908;8.126;2022-09-13T08:47:23;13.18;;;7.00;;
34491;SDS011;20737;49.908;8.126;2022-09-13T08:49:58;9.15;;;7.13;;
34491;SDS011;20737;49.908;8.126;2022-09-13T08:52:29;9.07;;;6.95;;
34491;SDS011;20737;49.908;8.126;2022-09-13T08:55:07;9.25;;;6.70;;
34491;SDS011;20737;49.908;8.126;2022-09-13T09:00:17;10.57;;;6.53;;
34491;SDS011;20737;49.908;8.126;2022-09-13T09:02:49;8.68;;;6.13;;
34491;SDS011;20737;49.908;8.126;2022-09-13T09:05:27;11.52;;;6.50;;
34491;SDS011;20737;49.908;8.126;2022-09-13T09:07:56;11.32;;;6.55;;
34491;SDS011;20737;49.908;8.126;2022-09-13T09:10:29;10.50;;;6.72;;
34491;SDS011;20737;49.908;8.126;2022-09-13T09:12:58;9.82;;;6.38;;
34491;SDS011;20737;49.908;8.126;2022-09-13T09:15:28;8.85;;;7.18;;
34491;SDS011;20737;49.908;8.126;2022-09-13T09:18:09;7.03;;;5.63;;
34491;SDS011;20737;49.908;8.126;2022-09-13T09:20:39;7.82;;;5.65;;
34491;SDS011;20737;49.908;8.126;2022-09-13T09:23:12;10.45;;;6.13;;
34491;SDS011;20737;49.908;8.126;2022-09-13T09:25:41;7.95;;;5.63;;
34491;SDS011;20737;49.908;8.126;2022-09-13T09:28:11;6.40;;;5.60;;
34491;SDS011;20737;49.908;8.126;2022-09-13T09:30:41;9.40;;;5.18;;
34491;SDS011;20737;49.908;8.126;2022-09-13T09:33:30;11.00;;;5.00;;
34491;SDS011;20737;49.908;8.126;2022-09-13T09:36:08;6.65;;;4.80;;
34491;SDS011;20737;49.908;8.126;2022-09-13T09:38:42;5.68;;;4.55;;
34491;SDS011;20737;49.908;8.126;2022-09-13T09:41:15;6.88;;;5.18;;
34491;SDS011;20737;49.908;8.126;2022-09-13T09:43:52;6.95;;;4.57;;
34491;SDS011;20737;49.908;8.126;2022-09-13T09:46:25;7.35;;;5.15;;
34491;SDS011;20737;49.908;8.126;2022-09-13T09:48:55;8.15;;;5.00;;
34491;SDS011;20737;49.908;8.126;2022-09-13T09:51:27;6.65;;;4.35;;
34491;SDS011;20737;49.908;8.126;2022-09-13T09:53:57;5.18;;;4.38;;
34491;SDS011;20737;49.908;8.126;2022-09-13T09:56:31;7.25;;;4.55;;
34491;SDS011;20737;49.908;8.126;2022-09-13T09:59:00;5.07;;;4.57;;
34491;SDS011;20737;49.908;8.126;2022-09-13T10:01:27;6.13;;;5.32;;
34491;SDS011;20737;49.908;8.126;2022-09-13T10:04:04;8.82;;;5.70;;
34491;SDS011;20737;49.908;8.126;2022-09-13T10:06:40;7.07;;;5.50;;
34491;SDS011;20737;49.908;8.126;2022-09-13T10:09:14;6.45;;;5.18;;
34491;SDS011;20737;49.908;8.126;2022-09-13T10:11:45;7.47;;;5.95;;
34491;SDS011;20737;49.908;8.126;2022-09-13T10:14:31;6.88;;;5.60;;
34491;SDS011;20737;49.908;8.126;2022-09-13T10:17:03;6.53;;;5.15;;
34491;SDS011;20737;49.908;8.126;2022-09-13T10:19:40;7.95;;;5.10;;
34491;SDS011;20737;49.908;8.126;2022-09-13T10:22:15;7.88;;;5.10;;
34491;SDS011;20737;49.908;8.126;2022-09-13T10:24:42;8.55;;;5.63;;
34491;SDS011;20737;49.908;8.126;2022-09-13T10:27:18;8.18;;;5.70;;
34491;SDS011;20737;49.908;8.126;2022-09-13T10:29:48;12.73;;;6.03;;
34491;SDS011;20737;49.908;8.126;2022-09-13T10:32:18;7.50;;;5.25;;
34491;SDS011;20737;49.908;8.126;2022-09-13T10:34:46;7.45;;;5.90;;
34491;SDS011;20737;49.908;8.126;2022-09-13T10:37:15;7.10;;;5.85;;
34491;SDS011;20737;49.908;8.126;2022-09-13T10:39:52;8.25;;;5.97;;
34491;SDS011;20737;49.908;8.126;2022-09-13T10:42:25;6.30;;;5.35;;
34491;SDS011;20737;49.908;8.126;2022-09-13T10:44:54;7.68;;;5.18;;
34491;SDS011;20737;49.908;8.126;2022-09-13T10:47:23;7.07;;;5.30;;
34491;SDS011;20737;49.908;8.126;2022-09-13T10:49:58;7.03;;;5.00;;
34491;SDS011;20737;49.908;8.126;2022-09-13T10:52:41;8.48;;;5.43;;
34491;SDS011;20737;49.908;8.126;2022-09-13T10:58:13;7.72;;;5.38;;
34491;SDS011;20737;49.908;8.126;2022-09-13T11:00:47;6.38;;;5.15;;
34491;SDS011;20737;49.908;8.126;2022-09-13T11:06:45;5.72;;;4.75;;
34491;SDS011;20737;49.908;8.126;2022-09-13T11:09:20;8.43;;;4.97;;
34491;SDS011;20737;49.908;8.126;2022-09-13T11:11:53;6.28;;;5.47;;
34491;SDS011;20737;49.908;8.126;2022-09-13T11:14:34;6.93;;;5.13;;
34491;SDS011;20737;49.908;8.126;2022-09-13T11:17:13;7.53;;;4.97;;
34491;SDS011;20737;49.908;8.126;2022-09-13T11:25:33;7.82;;;4.95;;
34491;SDS011;20737;49.908;8.126;2022-09-13T11:28:14;11.23;;;5.03;;
34491;SDS011;20737;49.908;8.126;2022-09-13T11:30:55;5.82;;;4.90;;
34491;SDS011;20737;49.908;8.126;2022-09-13T11:33:40;7.35;;;5.13;;
34491;SDS011;20737;49.908;8.126;2022-09-13T11:39:18;6.78;;;4.00;;
34491;SDS011;20737;49.908;8.126;2022-09-13T11:41:56;8.48;;;4.50;;
34491;SDS011;20737;49.908;8.126;2022-09-13T11:44:38;6.70;;;4.28;;
34491;SDS011;20737;49.908;8.126;2022-09-13T11:47:18;5.13;;;4.10;;
34491;SDS011;20737;49.908;8.126;2022-09-13T11:49:59;7.35;;;4.75;;
34491;SDS011;20737;49.908;8.126;2022-09-13T11:52:40;8.45;;;4.63;;
34491;SDS011;20737;49.908;8.126;2022-09-13T11:55:20;6.43;;;4.57;;
34491;SDS011;20737;49.908;8.126;2022-09-13T11:57:51;5.85;;;3.78;;
34491;SDS011;20737;49.908;8.126;2022-09-13T12:00:21;5.63;;;4.10;;
34491;SDS011;20737;49.908;8.126;2022-09-13T12:02:54;7.22;;;4.00;;
34491;SDS011;20737;49.908;8.126;2022-09-13T12:05:27;5.80;;;4.28;;
34491;SDS011;20737;49.908;8.126;2022-09-13T12:07:58;7.78;;;4.57;;
34491;SDS011;20737;49.908;8.126;2022-09-13T12:10:32;4.63;;;4.22;;
34491;SDS011;20737;49.908;8.126;2022-09-13T12:13:03;5.80;;;4.30;;
34491;SDS011;20737;49.908;8.126;2022-09-13T12:18:08;6.07;;;3.65;;
34491;SDS011;20737;49.908;8.126;2022-09-13T12:20:41;8.30;;;5.13;;
34491;SDS011;20737;49.908;8.126;2022-09-13T12:23:16;7.55;;;4.25;;
34491;SDS011;20737;49.908;8.126;2022-09-13T12:25:49;7.22;;;4.38;;
34491;SDS011;20737;49.908;8.126;2022-09-13T12:28:21;4.90;;;4.00;;
34491;SDS011;20737;49.908;8.126;2022-09-13T12:30:52;4.72;;;4.22;;
34491;SDS011;20737;49.908;8.126;2022-09-13T12:33:24;7.10;;;4.35;;
34491;SDS011;20737;49.908;8.126;2022-09-13T12:39:00;6.80;;;4.32;;
34491;SDS011;20737;49.908;8.126;2022-09-13T12:41:49;6.78;;;6.07;;
34491;SDS011;20737;49.908;8.126;2022-09-13T12:44:34;8.50;;;4.50;;
34491;SDS011;20737;49.908;8.126;2022-09-13T12:50:14;5.45;;;3.97;;
34491;SDS011;20737;49.908;8.126;2022-09-13T12:53:05;6.03;;;4.32;;
34491;SDS011;20737;49.908;8.126;2022-09-13T13:01:36;5.28;;;4.38;;
34491;SDS011;20737;49.908;8.126;2022-09-13T13:04:03;4.68;;;4.25;;
34491;SDS011;20737;49.908;8.126;2022-09-13T13:06:38;5.43;;;4.20;;
34491;SDS011;20737;49.908;8.126;2022-09-13T13:09:19;4.88;;;3.60;;
34491;SDS011;20737;49.908;8.126;2022-09-13T13:11:48;5.40;;;3.88;;
34491;SDS011;20737;49.908;8.126;2022-09-13T13:14:29;6.88;;;3.88;;
34491;SDS011;20737;49.908;8.126;2022-09-13T13:17:43;7.47;;;3.65;;
34491;SDS011;20737;49.908;8.126;2022-09-13T13:23:15;6.90;;;4.40;;
34491;SDS011;20737;49.908;8.126;2022-09-13T13:31:39;6.28;;;3.95;;
34491;SDS011;20737;49.908;8.126;2022-09-13T13:34:27;4.82;;;3.72;;
34491;SDS011;20737;49.908;8.126;2022-09-13T13:37:04;6.10;;;4.07;;
34491;SDS011;20737;49.908;8.126;2022-09-13T13:48:55;4.97;;;4.47;;
34491;SDS011;20737;49.908;8.126;2022-09-13T13:51:42;6.13;;;4.38;;
34491;SDS011;20737;49.908;8.126;2022-09-13T13:56:56;5.90;;;4.70;;
34491;SDS011;20737;49.908;8.126;2022-09-13T13:59:25;7.15;;;4.78;;
34491;SDS011;20737;49.908;8.126;2022-09-13T14:01:56;6.63;;;4.55;;
34491;SDS011;20737;49.908;8.126;2022-09-13T14:04:47;6.18;;;4.70;;
34491;SDS011;20737;49.908;8.126;2022-09-13T14:07:32;4.75;;;4.25;;
34491;SDS011;20737;49.908;8.126;2022-09-13T14:10:27;6.85;;;4.70;;
34491;SDS011;20737;49.908;8.126;2022-09-13T14:13:07;6.13;;;4.57;;
34491;SDS011;20737;49.908;8.126;2022-09-13T14:15:52;4.95;;;4.53;;
34491;SDS011;20737;49.908;8.126;2022-09-13T14:18:39;6.15;;;4.50;;
34491;SDS011;20737;49.908;8.126;2022-09-13T14:21:18;7.32;;;4.35;;
34491;SDS011;20737;49.908;8.126;2022-09-13T14:23:47;6.00;;;4.50;;
34491;SDS011;20737;49.908;8.126;2022-09-13T14:26:14;5.25;;;4.43;;
34491;SDS011;20737;49.908;8.126;2022-09-13T14:28:41;6.75;;;5.00;;
34491;SDS011;20737;49.908;8.126;2022-09-13T14:31:14;5.97;;;4.38;;
34491;SDS011;20737;49.908;8.126;2022-09-13T14:33:46;8.15;;;4.63;;
34491;SDS011;20737;49.908;8.126;2022-09-13T14:36:15;5.78;;;4.70;;
34491;SDS011;20737;49.908;8.126;2022-09-13T14:38:46;8.75;;;5.10;;
34491;SDS011;20737;49.908;8.126;2022-09-13T14:41:14;5.85;;;5.18;;
34491;SDS011;20737;49.908;8.126;2022-09-13T14:43:44;6.82;;;4.95;;
34491;SDS011;20737;49.908;8.126;2022-09-13T14:46:12;6.45;;;4.35;;
34491;SDS011;20737;49.908;8.126;2022-09-13T14:48:45;8.50;;;5.03;;
34491;SDS011;20737;49.908;8.126;2022-09-13T14:51:16;8.05;;;5.03;;
34491;SDS011;20737;49.908;8.126;2022-09-13T14:53:46;8.23;;;4.70;;
34491;SDS011;20737;49.908;8.126;2022-09-13T14:56:17;10.75;;;5.30;;
34491;SDS011;20737;49.908;8.126;2022-09-13T14:58:48;8.32;;;5.30;;
34491;SDS011;20737;49.908;8.126;2022-09-13T15:01:21;7.63;;;6.10;;
34491;SDS011;20737;49.908;8.126;2022-09-13T15:03:54;8.32;;;5.05;;
34491;SDS011;20737;49.908;8.126;2022-09-13T15:06:25;6.75;;;4.82;;
34491;SDS011;20737;49.908;8.126;2022-09-13T15:08:54;7.72;;;4.90;;
34491;SDS011;20737;49.908;8.126;2022-09-13T15:11:29;6.15;;;4.65;;
34491;SDS011;20737;49.908;8.126;2022-09-13T15:14:03;5.32;;;4.40;;
34491;SDS011;20737;49.908;8.126;2022-09-13T15:16:47;4.78;;;4.38;;
34491;SDS011;20737;49.908;8.126;2022-09-13T15:22:08;5.25;;;4.07;;
34491;SDS011;20737;49.908;8.126;2022-09-13T15:24:42;6.32;;;4.63;;
34491;SDS011;20737;49.908;8.126;2022-09-13T15:27:19;5.50;;;4.00;;
34491;SDS011;20737;49.908;8.126;2022-09-13T15:29:54;6.10;;;3.95;;
34491;SDS011;20737;49.908;8.126;2022-09-13T15:32:27;4.82;;;4.07;;
34491;SDS011;20737;49.908;8.126;2022-09-13T15:34:57;4.47;;;4.05;;
34491;SDS011;20737;49.908;8.126;2022-09-13T15:37:32;5.38;;;3.78;;
34491;SDS011;20737;49.908;8.126;2022-09-13T15:40:04;6.18;;;3.83;;
34491;SDS011;20737;49.908;8.126;2022-09-13T15:42:46;5.57;;;4.40;;
34491;SDS011;20737;49.908;8.126;2022-09-13T15:45:14;6.00;;;4.55;;
34491;SDS011;20737;49.908;8.126;2022-09-13T15:47:45;8.73;;;4.60;;
34491;SDS011;20737;49.908;8.126;2022-09-13T15:50:19;4.53;;;4.13;;
34491;SDS011;20737;49.908;8.126;2022-09-13T15:52:48;5.65;;;4.57;;
34491;SDS011;20737;49.908;8.126;2022-09-13T15:55:15;6.90;;;4.60;;
34491;SDS011;20737;49.908;8.126;2022-09-13T15:57:42;5.40;;;4.28;;
34491;SDS011;20737;49.908;8.126;2022-09-13T16:00:13;6.97;;;4.20;;
34491;SDS011;20737;49.908;8.126;2022-09-13T16:02:41;6.57;;;3.97;;
34491;SDS011;20737;49.908;8.126;2022-09-13T16:05:10;6.20;;;4.03;;
34491;SDS011;20737;49.908;8.126;2022-09-13T16:07:37;4.55;;;4.13;;
34491;SDS011;20737;49.908;8.126;2022-09-13T16:10:06;4.68;;;4.00;;
34491;SDS011;20737;49.908;8.126;2022-09-13T16:12:37;5.38;;;4.80;;